Time;durP1;ratioP1;P1;durP2;ratioP2;P2;SDS_P1;SDS_P2;PMS_P1;PMS_P2;Temp;Humidity;BMP_temperature;BMP_pressure;BME280_temperature;BME280_humidity;BME280_pressure;Samples;Min_cycle;Max_cycle;Signal;HPM_P1;HPM_P2
2024/02/10 00:01:17;;;;;;;15.07;3.13;;;7.00;99.90;;;;;;5109481;28;20031;-50
2024/02/10 00:03:45;;;;;;;13.55;2.80;;;7.00;99.90;;;;;;5108938;28;20027;-50
2024/02/10 00:06:15;;;;;;;15.93;3.80;;;7.00;99.90;;;;;;5109134;28;20036;-50
2024/02/10 00:08:44;;;;;;;12.02;2.30;;;7.00;99.90;;;;;;5109241;28;20106;-49
2024/02/10 00:11:10;;;;;;;14.50;2.60;;;7.00;99.90;;;;;;5108842;28;20178;-50
2024/02/10 00:13:39;;;;;;;16.70;4.20;;;7.00;99.90;;;;;;5108998;28;20043;-50
2024/02/10 00:16:05;;;;;;;14.82;3.22;;;7.00;99.90;;;;;;5108876;28;20080;-50
2024/02/10 00:18:31;;;;;;;11.27;2.45;;;7.00;99.90;;;;;;5107536;28;20324;-51
2024/02/10 00:20:57;;;;;;;12.85;2.65;;;7.00;99.90;;;;;;5108538;28;20238;-50
2024/02/10 00:23:24;;;;;;;13.48;2.35;;;7.10;99.90;;;;;;5107895;28;20024;-50
2024/02/10 00:25:53;;;;;;;10.57;2.58;;;7.20;99.90;;;;;;5108803;28;20024;-50
2024/02/10 00:28:19;;;;;;;16.95;2.38;;;7.20;99.90;;;;;;5107573;28;20197;-50
2024/02/10 00:30:45;;;;;;;13.75;2.22;;;7.20;99.90;;;;;;5108280;28;20082;-50
2024/02/10 00:33:10;;;;;;;18.30;3.70;;;7.30;99.90;;;;;;5108479;28;20036;-48
2024/02/10 00:35:36;;;;;;;12.15;2.50;;;7.30;99.90;;;;;;5108523;28;20342;-50
2024/02/10 00:38:03;;;;;;;12.10;2.15;;;7.30;99.90;;;;;;5108513;28;20230;-50
2024/02/10 00:40:30;;;;;;;15.05;4.00;;;7.30;99.90;;;;;;5108345;28;20016;-48
2024/02/10 00:42:56;;;;;;;15.50;2.90;;;7.30;99.90;;;;;;5108434;28;20054;-50
2024/02/10 00:45:24;;;;;;;12.02;2.85;;;7.30;99.90;;;;;;5107961;28;20173;-49
2024/02/10 00:47:50;;;;;;;11.75;1.92;;;7.20;99.90;;;;;;5108305;28;20028;-48
2024/02/10 00:50:17;;;;;;;14.65;1.90;;;7.20;99.90;;;;;;5107374;28;20039;-49
2024/02/10 00:52:48;;;;;;;13.60;2.17;;;7.20;99.90;;;;;;5107922;28;20046;-49
2024/02/10 00:55:13;;;;;;;12.85;2.22;;;7.20;99.90;;;;;;5108373;28;20083;-48
2024/02/10 00:57:40;;;;;;;8.55;2.10;;;7.20;99.90;;;;;;5106885;28;20039;-47
2024/02/10 01:00:11;;;;;;;11.15;2.60;;;7.20;99.90;;;;;;5108110;28;20064;-49
2024/02/10 01:02:37;;;;;;;15.43;2.42;;;7.30;99.90;;;;;;5108195;28;20024;-47
2024/02/10 01:05:05;;;;;;;10.45;1.90;;;7.30;99.90;;;;;;5107935;28;20093;-49
2024/02/10 01:07:31;;;;;;;14.98;2.22;;;7.30;99.90;;;;;;5108061;28;20166;-47
2024/02/10 01:09:56;;;;;;;11.77;1.90;;;7.30;99.90;;;;;;5107923;28;20035;-47
2024/02/10 01:12:22;;;;;;;13.50;2.35;;;7.30;99.90;;;;;;5107974;28;20031;-49
2024/02/10 01:14:48;;;;;;;16.42;3.17;;;7.40;99.90;;;;;;5107817;28;20028;-47
2024/02/10 01:17:13;;;;;;;10.90;1.90;;;7.30;99.90;;;;;;5107402;28;20052;-50
2024/02/10 01:19:51;;;;;;;10.90;2.17;;;7.30;99.90;;;;;;5107659;28;20100;-50
2024/02/10 01:22:22;;;;;;;12.00;3.00;;;7.30;99.90;;;;;;5107820;28;20024;-50
2024/02/10 01:24:53;;;;;;;13.65;2.15;;;7.30;99.90;;;;;;5107628;28;20028;-48
2024/02/10 01:27:22;;;;;;;8.80;1.85;;;7.30;99.90;;;;;;5107633;28;20034;-50
2024/02/10 01:29:50;;;;;;;11.50;2.00;;;7.30;99.90;;;;;;5107530;28;20035;-50
2024/02/10 01:32:19;;;;;;;11.80;2.15;;;7.30;99.90;;;;;;5107650;28;20091;-50
2024/02/10 01:34:47;;;;;;;7.30;1.90;;;7.20;99.90;;;;;;5107396;28;20151;-49
2024/02/10 01:37:20;;;;;;;9.18;2.13;;;7.20;99.90;;;;;;5106242;28;20042;-49
2024/02/10 01:39:53;;;;;;;10.32;2.00;;;7.10;99.90;;;;;;5107499;28;20024;-50
2024/02/10 01:42:19;;;;;;;8.77;2.25;;;7.10;99.90;;;;;;5107459;28;20159;-50
2024/02/10 01:44:45;;;;;;;12.48;2.08;;;7.10;99.90;;;;;;5105984;28;20194;-51
2024/02/10 01:47:12;;;;;;;11.10;1.83;;;7.10;99.90;;;;;;5107257;28;20024;-47
2024/02/10 01:49:38;;;;;;;10.68;2.03;;;7.10;99.90;;;;;;5107086;28;20339;-50
2024/02/10 01:52:07;;;;;;;12.63;2.15;;;7.00;99.90;;;;;;5106251;28;20024;-49
2024/02/10 01:54:35;;;;;;;14.13;2.17;;;7.00;99.90;;;;;;5107199;28;20065;-47
2024/02/10 01:57:00;;;;;;;7.05;1.80;;;7.00;99.90;;;;;;5105978;28;20039;-46
2024/02/10 01:59:26;;;;;;;7.68;1.80;;;7.00;99.90;;;;;;5106075;28;20087;-47
2024/02/10 02:01:52;;;;;;;8.90;1.83;;;7.00;99.90;;;;;;5106904;28;20016;-47
2024/02/10 02:04:22;;;;;;;7.43;2.13;;;6.90;99.90;;;;;;5106070;28;20046;-47
2024/02/10 02:06:49;;;;;;;11.13;2.10;;;6.90;99.90;;;;;;5106622;28;20284;-48
2024/02/10 02:09:15;;;;;;;12.85;2.67;;;6.90;99.90;;;;;;5105689;28;20099;-49
2024/02/10 02:11:48;;;;;;;7.20;2.63;;;6.90;99.90;;;;;;5105739;28;20107;-50
2024/02/10 02:14:14;;;;;;;10.82;2.47;;;6.90;99.90;;;;;;5106790;28;20269;-50
2024/02/10 02:16:40;;;;;;;7.60;2.13;;;6.90;99.90;;;;;;5106552;28;20056;-50
2024/02/10 02:19:07;;;;;;;6.80;1.88;;;6.90;99.90;;;;;;5105455;28;20042;-50
2024/02/10 02:21:33;;;;;;;9.38;2.30;;;6.80;99.90;;;;;;5106559;28;20035;-50
2024/02/10 02:23:58;;;;;;;9.88;2.20;;;6.80;99.90;;;;;;5106600;28;20027;-50
2024/02/10 02:26:24;;;;;;;12.20;2.90;;;6.80;99.90;;;;;;5106567;28;20121;-50
2024/02/10 02:28:50;;;;;;;10.45;2.78;;;6.80;99.90;;;;;;5105766;28;20047;-50
2024/02/10 02:31:17;;;;;;;13.02;3.22;;;6.80;99.90;;;;;;5106463;28;20175;-50
2024/02/10 02:33:43;;;;;;;6.65;2.90;;;6.80;99.90;;;;;;5106401;28;20177;-48
2024/02/10 02:36:08;;;;;;;11.93;2.90;;;6.80;99.90;;;;;;5106316;28;20039;-47
2024/02/10 02:38:34;;;;;;;5.82;1.83;;;6.80;99.90;;;;;;5106278;28;20028;-50
2024/02/10 02:41:00;;;;;;;11.77;5.40;;;6.80;99.90;;;;;;5105959;28;20031;-50
2024/02/10 02:43:26;;;;;;;10.30;5.72;;;6.90;99.90;;;;;;5106176;28;20012;-48
2024/02/10 02:45:52;;;;;;;11.93;3.50;;;6.90;99.90;;;;;;5105121;28;20028;-48
2024/02/10 02:48:17;;;;;;;7.22;2.42;;;6.90;99.90;;;;;;5106108;28;20087;-50
2024/02/10 02:50:46;;;;;;;5.68;2.15;;;7.00;99.90;;;;;;5105980;28;20028;-47
2024/02/10 02:53:12;;;;;;;7.68;2.10;;;6.90;99.90;;;;;;5105813;28;20016;-47
2024/02/10 02:55:38;;;;;;;5.75;1.75;;;6.80;99.90;;;;;;5105922;28;20036;-47
2024/02/10 02:58:09;;;;;;;12.32;2.70;;;6.80;99.90;;;;;;5105826;28;20047;-46
2024/02/10 03:00:38;;;;;;;10.98;2.05;;;6.70;99.90;;;;;;5105993;28;20023;-45
2024/02/10 03:03:04;;;;;;;4.90;2.00;;;6.70;99.90;;;;;;5105559;28;20020;-46
2024/02/10 03:05:33;;;;;;;8.07;1.80;;;6.70;99.90;;;;;;5105763;28;20260;-47
2024/02/10 03:07:59;;;;;;;7.72;2.08;;;6.60;99.90;;;;;;5105870;28;20096;-48
2024/02/10 03:10:24;;;;;;;6.47;2.17;;;6.60;99.90;;;;;;5105682;28;20051;-46
2024/02/10 03:12:50;;;;;;;6.13;2.20;;;6.70;99.90;;;;;;5105393;28;20027;-47
2024/02/10 03:15:16;;;;;;;8.68;2.10;;;6.70;99.90;;;;;;5105894;28;20050;-46
2024/02/10 03:17:46;;;;;;;9.40;2.30;;;6.70;99.90;;;;;;5105333;28;20060;-49
2024/02/10 03:20:12;;;;;;;7.85;2.20;;;6.70;99.90;;;;;;5104903;28;20104;-47
2024/02/10 03:22:38;;;;;;;6.88;1.80;;;6.70;99.90;;;;;;5105558;28;20023;-49
2024/02/10 03:25:04;;;;;;;5.82;2.05;;;6.60;99.90;;;;;;5104341;28;20039;-50
2024/02/10 03:27:30;;;;;;;10.73;2.20;;;6.60;99.90;;;;;;5104363;28;20028;-48
2024/02/10 03:29:55;;;;;;;7.40;2.33;;;6.60;99.90;;;;;;5105570;28;20027;-47
2024/02/10 03:32:21;;;;;;;8.20;2.30;;;6.60;99.90;;;;;;5105475;28;20040;-47
2024/02/10 03:34:46;;;;;;;5.82;2.40;;;6.50;99.90;;;;;;5105314;28;20047;-46
2024/02/10 03:37:12;;;;;;;7.95;2.40;;;6.50;99.90;;;;;;5105176;28;20016;-46
2024/02/10 03:39:38;;;;;;;6.00;2.08;;;6.40;99.90;;;;;;5105360;28;20036;-48
2024/02/10 03:42:05;;;;;;;5.10;1.92;;;6.40;99.90;;;;;;5104888;28;20092;-49
2024/02/10 03:44:31;;;;;;;11.45;2.63;;;6.30;99.90;;;;;;5104340;28;20048;-49
2024/02/10 03:46:57;;;;;;;7.07;1.95;;;6.20;99.90;;;;;;5104999;28;20081;-48
2024/02/10 03:49:23;;;;;;;7.05;2.40;;;6.20;99.90;;;;;;5104414;28;20035;-50
2024/02/10 03:51:48;;;;;;;9.45;2.53;;;6.20;99.90;;;;;;5105118;28;20055;-48
2024/02/10 03:54:14;;;;;;;8.52;2.28;;;6.10;99.90;;;;;;5104718;28;20198;-48
2024/02/10 03:56:46;;;;;;;7.80;2.70;;;6.10;99.90;;;;;;5104778;28;20048;-49
2024/02/10 03:59:13;;;;;;;18.67;2.72;;;6.10;99.90;;;;;;5105090;28;20053;-46
2024/02/10 04:01:43;;;;;;;6.38;2.38;;;6.00;99.90;;;;;;5104991;28;20043;-48
2024/02/10 04:04:08;;;;;;;5.07;2.58;;;6.00;99.90;;;;;;5104066;28;20028;-47
2024/02/10 04:06:34;;;;;;;7.18;2.40;;;5.90;99.90;;;;;;5104069;28;20032;-49
2024/02/10 04:09:06;;;;;;;6.28;2.20;;;5.90;99.90;;;;;;5104826;28;20046;-46
2024/02/10 04:11:32;;;;;;;11.70;3.15;;;5.80;99.90;;;;;;5104876;28;20031;-47
2024/02/10 04:13:58;;;;;;;6.50;2.42;;;5.80;99.90;;;;;;5105040;28;20206;-46
2024/02/10 04:16:25;;;;;;;7.53;2.63;;;5.80;99.90;;;;;;5104750;28;20189;-49
2024/02/10 04:18:53;;;;;;;6.25;2.13;;;5.70;99.90;;;;;;5104619;28;20036;-49
2024/02/10 04:21:19;;;;;;;8.68;2.38;;;5.70;99.90;;;;;;5104152;28;20043;-48
2024/02/10 04:23:45;;;;;;;4.65;1.92;;;5.60;99.90;;;;;;5103972;28;20118;-49
2024/02/10 04:26:10;;;;;;;9.48;2.50;;;5.60;99.90;;;;;;5105055;28;20217;-46
2024/02/10 04:28:36;;;;;;;7.93;2.38;;;5.50;99.90;;;;;;5103974;28;20043;-47
2024/02/10 04:31:05;;;;;;;4.95;2.10;;;5.50;99.90;;;;;;5103595;28;20028;-49
2024/02/10 04:33:31;;;;;;;6.20;2.15;;;5.40;99.90;;;;;;5107158;28;20098;-47
2024/02/10 04:35:56;;;;;;;8.32;2.20;;;5.40;99.90;;;;;;5108635;28;20297;-49
2024/02/10 04:38:23;;;;;;;6.28;2.22;;;5.40;99.90;;;;;;5108387;28;20043;-47
2024/02/10 04:40:48;;;;;;;6.90;2.53;;;5.30;99.90;;;;;;5108347;28;20052;-49
2024/02/10 04:43:17;;;;;;;5.35;2.03;;;5.30;99.90;;;;;;5107251;28;20073;-46
2024/02/10 04:45:47;;;;;;;4.63;2.13;;;5.30;99.90;;;;;;5108211;28;20056;-50
2024/02/10 04:48:13;;;;;;;5.03;2.17;;;5.20;99.90;;;;;;5108335;28;20032;-48
2024/02/10 04:50:39;;;;;;;8.95;2.10;;;5.20;99.90;;;;;;5108302;28;20058;-48
2024/02/10 04:53:07;;;;;;;7.53;2.83;;;5.10;99.90;;;;;;5107964;28;20171;-45
2024/02/10 04:55:33;;;;;;;5.90;1.90;;;5.10;99.90;;;;;;5107150;28;20166;-47
2024/02/10 04:58:01;;;;;;;7.22;2.00;;;5.10;99.90;;;;;;5107545;28;20031;-47
2024/02/10 05:00:27;;;;;;;5.07;1.80;;;5.00;99.90;;;;;;5108264;28;20089;-47
2024/02/10 05:02:53;;;;;;;6.57;2.10;;;5.00;99.90;;;;;;5107888;28;20031;-47
2024/02/10 05:05:20;;;;;;;5.88;1.83;;;4.90;99.90;;;;;;5107925;28;20142;-46
2024/02/10 05:07:46;;;;;;;4.57;1.90;;;4.90;99.90;;;;;;5107832;28;20046;-48
2024/02/10 05:10:18;;;;;;;4.72;2.08;;;4.90;99.90;;;;;;5107025;28;20257;-46
2024/02/10 05:12:44;;;;;;;5.93;2.08;;;4.90;99.90;;;;;;5106954;28;20099;-49
2024/02/10 05:15:10;;;;;;;6.85;1.90;;;4.90;99.90;;;;;;5107529;28;20036;-48
2024/02/10 05:17:42;;;;;;;7.70;2.10;;;4.90;99.90;;;;;;5107427;28;20048;-48
2024/02/10 05:20:13;;;;;;;4.78;2.00;;;4.80;99.90;;;;;;5106886;28;20024;-47
2024/02/10 05:22:42;;;;;;;7.00;1.98;;;4.80;99.90;;;;;;5107806;28;20067;-47
2024/02/10 05:25:10;;;;;;;7.23;2.10;;;4.80;99.90;;;;;;5106511;28;20031;-48
2024/02/10 05:27:36;;;;;;;3.67;1.77;;;4.70;99.90;;;;;;5107382;28;20081;-49
2024/02/10 05:30:02;;;;;;;4.93;1.80;;;4.70;99.90;;;;;;5107600;28;20032;-49
2024/02/10 05:32:28;;;;;;;5.95;2.00;;;4.70;99.90;;;;;;5107484;28;20039;-48
2024/02/10 05:34:54;;;;;;;4.47;1.90;;;4.60;99.90;;;;;;5107307;28;20039;-49
2024/02/10 05:37:20;;;;;;;5.78;2.03;;;4.60;99.90;;;;;;5106350;28;20131;-49
2024/02/10 05:39:45;;;;;;;5.28;1.70;;;4.60;99.90;;;;;;5107359;28;20028;-48
2024/02/10 05:42:11;;;;;;;4.93;1.70;;;4.60;99.90;;;;;;5106293;28;20202;-47
2024/02/10 05:44:40;;;;;;;5.57;1.80;;;4.60;99.90;;;;;;5106766;28;20032;-46
2024/02/10 05:47:06;;;;;;;3.85;1.90;;;4.50;99.90;;;;;;5106290;28;20028;-47
2024/02/10 05:49:34;;;;;;;4.13;1.50;;;4.50;99.90;;;;;;5107015;28;20095;-47
2024/02/10 05:52:00;;;;;;;4.07;2.00;;;4.50;99.90;;;;;;5106095;28;20020;-48
2024/02/10 05:54:29;;;;;;;5.25;2.25;;;4.40;99.90;;;;;;5107053;28;20280;-45
2024/02/10 05:56:54;;;;;;;4.25;2.33;;;4.30;99.90;;;;;;5106869;28;20032;-48
2024/02/10 05:59:20;;;;;;;4.85;2.08;;;4.30;99.90;;;;;;5106868;28;20061;-47
2024/02/10 06:01:47;;;;;;;6.18;1.63;;;4.30;99.90;;;;;;5106407;28;20328;-48
2024/02/10 06:04:13;;;;;;;4.07;1.65;;;4.20;99.90;;;;;;5106960;28;20057;-46
2024/02/10 06:06:41;;;;;;;6.30;1.88;;;4.20;99.90;;;;;;5106942;28;20015;-49
2024/02/10 06:09:07;;;;;;;8.20;1.80;;;4.20;99.90;;;;;;5105946;28;20036;-49
2024/02/10 06:11:33;;;;;;;4.57;2.03;;;4.20;99.90;;;;;;5106613;28;20028;-48
2024/02/10 06:14:02;;;;;;;5.00;2.13;;;4.20;99.90;;;;;;5106588;28;20031;-49
2024/02/10 06:16:27;;;;;;;8.25;1.95;;;4.20;99.90;;;;;;5106632;28;20032;-49
2024/02/10 06:18:54;;;;;;;5.38;1.90;;;4.10;99.90;;;;;;5106472;28;20105;-46
2024/02/10 06:21:21;;;;;;;8.13;2.30;;;4.20;99.90;;;;;;5105192;28;20031;-49
2024/02/10 06:23:47;;;;;;;5.25;2.10;;;4.10;99.90;;;;;;5106410;28;20076;-49
2024/02/10 06:26:13;;;;;;;6.43;2.00;;;4.20;99.90;;;;;;5105410;28;20044;-50
2024/02/10 06:28:42;;;;;;;6.60;1.80;;;4.20;99.90;;;;;;5106419;28;20089;-48
2024/02/10 06:31:12;;;;;;;4.53;2.13;;;4.20;99.90;;;;;;5106355;28;20034;-48
2024/02/10 06:33:37;;;;;;;6.35;1.77;;;4.10;99.90;;;;;;5106080;28;20050;-49
2024/02/10 06:36:03;;;;;;;4.25;1.70;;;4.20;99.90;;;;;;5106177;28;20028;-48
2024/02/10 06:38:32;;;;;;;4.95;1.98;;;4.10;99.90;;;;;;5105677;28;20039;-48
2024/02/10 06:41:01;;;;;;;4.88;1.90;;;4.10;99.90;;;;;;5106008;28;20262;-47
2024/02/10 06:43:27;;;;;;;4.67;1.97;;;4.10;99.90;;;;;;5106188;28;20035;-46
2024/02/10 06:45:52;;;;;;;6.95;2.13;;;4.10;99.90;;;;;;5106054;28;20028;-49
2024/02/10 06:48:19;;;;;;;6.32;2.33;;;4.10;99.90;;;;;;5106062;28;20035;-50
2024/02/10 06:50:45;;;;;;;6.35;1.77;;;4.10;99.90;;;;;;5105578;28;20145;-45
2024/02/10 06:53:10;;;;;;;5.15;1.75;;;4.00;99.90;;;;;;5105718;28;20027;-49
2024/02/10 06:55:36;;;;;;;6.60;2.30;;;4.10;99.90;;;;;;5104915;28;20044;-49
2024/02/10 06:58:02;;;;;;;7.22;2.65;;;4.10;99.90;;;;;;5105764;28;20035;-47
2024/02/10 07:00:34;;;;;;;7.95;2.70;;;4.10;99.90;;;;;;5105782;28;20024;-49
2024/02/10 07:03:00;;;;;;;7.80;1.92;;;4.10;99.90;;;;;;5105684;28;20040;-48
2024/02/10 07:05:26;;;;;;;7.07;1.50;;;4.20;99.90;;;;;;5104488;28;20024;-48
2024/02/10 07:07:52;;;;;;;9.80;2.22;;;4.20;99.90;;;;;;5105341;28;20028;-49
2024/02/10 07:10:19;;;;;;;9.23;1.80;;;4.20;99.90;;;;;;5105617;28;20194;-49
2024/02/10 07:12:49;;;;;;;9.10;1.67;;;4.20;99.90;;;;;;5105485;28;20038;-49
2024/02/10 07:15:18;;;;;;;;;;;4.30;99.90;;;;;;5105841;28;20020;-49
2024/02/10 07:17:46;;;;;;;9.80;2.58;;;4.30;99.90;;;;;;5105289;28;19927;-49
2024/02/10 07:20:18;;;;;;;8.27;2.13;;;4.30;99.90;;;;;;5104567;28;20039;-49
2024/02/10 07:22:59;;;;;;;5.88;1.80;;;4.30;99.90;;;;;;5104217;28;20086;-48
2024/02/10 07:25:26;;;;;;;7.47;1.90;;;4.10;99.90;;;;;;5105165;28;20312;-49
2024/02/10 07:27:51;;;;;;;6.97;1.75;;;3.90;99.90;;;;;;5104330;28;20087;-47
2024/02/10 07:30:18;;;;;;;7.38;1.50;;;3.80;99.90;;;;;;5105333;28;20035;-47
2024/02/10 07:32:47;;;;;;;6.05;1.60;;;3.90;99.90;;;;;;5104112;28;20035;-50
2024/02/10 07:35:13;;;;;;;8.25;1.92;;;3.90;99.90;;;;;;5105258;28;20028;-46
2024/02/10 07:37:39;;;;;;;5.15;1.58;;;3.90;99.90;;;;;;5105122;28;20028;-49
2024/02/10 07:40:07;;;;;;;11.13;9.93;;;3.90;99.90;;;;;;5105064;28;20036;-48
2024/02/10 07:42:34;;;;;;;12.77;4.25;;;3.90;99.90;;;;;;5105200;28;20274;-46
2024/02/10 07:45:00;;;;;;;6.55;2.67;;;4.00;99.90;;;;;;5104956;28;20042;-46
2024/02/10 07:47:26;;;;;;;8.20;2.75;;;4.00;99.90;;;;;;5105082;28;20107;-48
2024/02/10 07:49:52;;;;;;;6.93;1.92;;;4.00;99.90;;;;;;5105015;28;20027;-48
2024/02/10 07:52:19;;;;;;;7.30;2.05;;;4.00;99.90;;;;;;5103949;28;20096;-49
2024/02/10 07:54:46;;;;;;;6.20;2.20;;;4.00;99.90;;;;;;5104009;28;20081;-49
2024/02/10 07:57:19;;;;;;;9.98;2.00;;;3.90;99.90;;;;;;5104895;28;20088;-46
2024/02/10 07:59:51;;;;;;;6.20;2.25;;;3.90;99.90;;;;;;5104969;28;20031;-49
2024/02/10 08:02:21;;;;;;;6.22;2.00;;;4.00;99.90;;;;;;5105300;28;20083;-46
2024/02/10 08:04:49;;;;;;;;;;;4.10;99.90;;;;;;5104979;28;20028;-46
2024/02/10 08:07:15;;;;;;;10.90;3.38;;;4.10;99.90;;;;;;5105365;28;20105;-47
2024/02/10 08:09:41;;;;;;;8.55;2.75;;;4.20;99.90;;;;;;5108774;28;20035;-49
2024/02/10 08:12:08;;;;;;;7.50;2.17;;;4.30;99.90;;;;;;5109201;28;20174;-49
2024/02/10 08:14:36;;;;;;;8.73;1.98;;;4.40;99.90;;;;;;5108896;28;20048;-46
2024/02/10 08:17:04;;;;;;;12.63;3.25;;;4.40;99.90;;;;;;5108595;28;20247;-49
2024/02/10 08:19:30;;;;;;;28.13;7.05;;;4.50;99.90;;;;;;5107657;28;20197;-45
2024/02/10 08:21:57;;;;;;;23.60;5.72;;;4.60;99.90;;;;;;5108842;28;20028;-48
2024/02/10 08:24:22;;;;;;;33.83;15.48;;;4.60;99.90;;;;;;5108657;28;20032;-46
2024/02/10 08:26:49;;;;;;;23.80;10.85;;;4.60;99.90;;;;;;5108628;28;20182;-47
2024/02/10 08:29:15;;;;;;;29.48;14.10;;;4.60;99.90;;;;;;5107806;28;20081;-47
2024/02/10 08:31:40;;;;;;;26.55;13.30;;;4.50;99.90;;;;;;5108383;28;20044;-46
2024/02/10 08:34:08;;;;;;;21.73;10.35;;;4.50;99.90;;;;;;5108939;28;20028;-46
2024/02/10 08:36:35;;;;;;;19.35;7.85;;;4.40;99.90;;;;;;5108446;28;20032;-45
2024/02/10 08:39:03;;;;;;;15.07;7.65;;;4.40;99.90;;;;;;5108310;28;20035;-47
2024/02/10 08:41:30;;;;;;;11.00;5.20;;;4.40;99.90;;;;;;5108094;28;20083;-48
2024/02/10 08:43:55;;;;;;;13.23;7.40;;;4.50;99.90;;;;;;5107913;28;20031;-47
2024/02/10 08:46:23;;;;;;;14.75;6.53;;;4.50;99.90;;;;;;5108377;28;20156;-46
2024/02/10 08:48:50;;;;;;;14.73;6.38;;;4.50;99.90;;;;;;5107867;28;20308;-48
2024/02/10 08:51:15;;;;;;;11.95;3.70;;;4.60;99.90;;;;;;5108197;28;20230;-46
2024/02/10 08:53:42;;;;;;;11.65;3.55;;;4.70;99.90;;;;;;5108198;28;20048;-47
2024/02/10 08:56:11;;;;;;;6.85;2.65;;;4.80;99.90;;;;;;5108499;28;20015;-48
2024/02/10 08:58:40;;;;;;;10.27;2.83;;;5.10;99.90;;;;;;5106694;28;20066;-48
2024/02/10 09:01:15;;;;;;;10.77;2.42;;;5.20;99.90;;;;;;5107884;28;20028;-48
2024/02/10 09:03:56;;;;;;;7.63;3.67;;;5.50;99.90;;;;;;5107666;28;20316;-49
2024/02/10 09:06:22;;;;;;;7.32;2.58;;;5.80;99.90;;;;;;5106629;28;20024;-46
2024/02/10 09:08:51;;;;;;;7.38;2.58;;;6.00;99.90;;;;;;5107325;28;20020;-46
2024/02/10 09:11:18;;;;;;;7.13;2.60;;;6.30;99.90;;;;;;5106573;28;20076;-47
2024/02/10 09:13:45;;;;;;;9.57;3.28;;;6.20;99.90;;;;;;5107556;28;20028;-49
2024/02/10 09:16:13;;;;;;;8.98;3.00;;;6.00;99.90;;;;;;5107397;28;20036;-46
2024/02/10 09:18:41;;;;;;;10.55;3.38;;;6.00;99.90;;;;;;5106863;28;20046;-47
2024/02/10 09:21:07;;;;;;;9.27;3.10;;;5.90;99.90;;;;;;5107537;28;20030;-49
2024/02/10 09:23:32;;;;;;;8.25;4.28;;;6.00;99.90;;;;;;5107741;28;20024;-46
2024/02/10 09:25:58;;;;;;;8.88;3.50;;;5.90;99.90;;;;;;5107296;28;20086;-47
2024/02/10 09:28:26;;;;;;;12.93;4.28;;;6.00;99.90;;;;;;5107133;28;20135;-49
2024/02/10 09:30:51;;;;;;;10.52;4.03;;;6.00;99.90;;;;;;5105849;28;20096;-48
2024/02/10 09:33:21;;;;;;;11.95;2.60;;;6.10;99.90;;;;;;5106953;28;20048;-47
2024/02/10 09:35:48;;;;;;;12.02;3.15;;;6.20;99.90;;;;;;5107049;28;20237;-49
2024/02/10 09:38:15;;;;;;;7.50;2.05;;;6.40;99.90;;;;;;5106045;28;20035;-46
2024/02/10 09:40:42;;;;;;;7.93;2.45;;;6.50;99.90;;;;;;5105901;28;20029;-49
2024/02/10 09:43:08;;;;;;;8.70;3.63;;;6.80;99.90;;;;;;5105762;28;20178;-47
2024/02/10 09:45:35;;;;;;;9.48;3.80;;;6.80;99.90;;;;;;5107011;28;20032;-49
2024/02/10 09:48:01;;;;;;;16.15;4.80;;;6.90;99.90;;;;;;5106106;28;20040;-49
2024/02/10 09:50:31;;;;;;;11.32;4.32;;;7.70;99.90;;;;;;5106247;28;20226;-49
2024/02/10 09:52:57;;;;;;;11.73;4.07;;;9.70;99.90;;;;;;5106204;28;20103;-49
2024/02/10 09:55:23;;;;;;;10.00;5.55;;;11.40;99.90;;;;;;5106966;28;20043;-50
2024/02/10 09:57:50;;;;;;;12.45;6.15;;;12.80;99.90;;;;;;5106851;28;20398;-48
2024/02/10 10:00:17;;;;;;;12.57;4.40;;;13.60;99.90;;;;;;5105827;28;20043;-49
2024/02/10 10:02:49;;;;;;;6.07;2.60;;;14.20;99.90;;;;;;5106913;28;20027;-50
2024/02/10 10:05:18;;;;;;;4.50;2.17;;;14.90;99.90;;;;;;5106255;28;20097;-50
2024/02/10 10:07:53;;;;;;;10.73;3.40;;;16.00;99.90;;;;;;5106473;28;20036;-48
2024/02/10 10:10:19;;;;;;;6.72;2.00;;;16.50;99.90;;;;;;5106552;28;20182;-48
2024/02/10 10:12:45;;;;;;;9.07;2.45;;;17.20;99.90;;;;;;5106422;28;20042;-49
2024/02/10 10:15:11;;;;;;;12.05;2.70;;;17.10;99.90;;;;;;5106736;28;20285;-50
2024/02/10 10:17:37;;;;;;;8.00;2.53;;;16.80;99.90;;;;;;5106706;28;20169;-51
2024/02/10 10:20:04;;;;;;;5.75;2.00;;;17.30;99.90;;;;;;5106367;28;20028;-53
2024/02/10 10:22:34;;;;;;;11.70;4.07;;;17.90;99.90;;;;;;5105807;28;20030;-50
2024/02/10 10:24:59;;;;;;;8.00;2.72;;;17.90;99.90;;;;;;5105273;28;20266;-50
2024/02/10 10:27:25;;;;;;;8.35;3.25;;;18.20;99.90;;;;;;5106185;28;20062;-51
2024/02/10 10:29:51;;;;;;;6.07;2.67;;;18.60;99.90;;;;;;5106299;28;20231;-51
2024/02/10 10:32:18;;;;;;;11.50;3.78;;;18.90;99.90;;;;;;5105464;28;20032;-50
2024/02/10 10:34:46;;;;;;;5.50;2.10;;;18.90;99.90;;;;;;5105981;28;20032;-51
2024/02/10 10:37:12;;;;;;;5.43;1.75;;;19.20;99.90;;;;;;5105420;28;20031;-50
2024/02/10 10:39:38;;;;;;;7.57;2.25;;;19.20;99.90;;;;;;5088408;28;20091;-51
2024/02/10 10:42:04;;;;;;;5.57;1.67;;;17.50;99.90;;;;;;5105356;28;20036;-50
2024/02/10 10:44:30;;;;;;;7.10;1.75;;;15.70;99.90;;;;;;5105205;28;20178;-53
2024/02/10 10:46:58;;;;;;;5.32;1.38;;;15.90;99.90;;;;;;5104937;28;20024;-53
2024/02/10 10:49:23;;;;;;;6.97;1.20;;;17.00;99.90;;;;;;5105031;28;20081;-51
2024/02/10 10:51:59;;;;;;;6.13;1.20;;;17.50;99.90;;;;;;5104827;28;20032;-51
2024/02/10 10:54:25;;;;;;;4.60;1.50;;;17.60;99.90;;;;;;5106095;28;20282;-51
2024/02/10 10:56:51;;;;;;;5.47;1.70;;;17.60;99.90;;;;;;5105070;28;20092;-49
2024/02/10 10:59:16;;;;;;;8.13;1.50;;;17.50;99.90;;;;;;5104860;28;20032;-48
2024/02/10 11:01:42;;;;;;;4.90;1.40;;;16.60;99.90;;;;;;5104968;28;20024;-51
2024/02/10 11:04:11;;;;;;;7.00;1.75;;;15.20;99.90;;;;;;5104792;28;20235;-49
2024/02/10 11:06:36;;;;;;;7.13;1.60;;;14.10;99.90;;;;;;5106064;28;20036;-51
2024/02/10 11:09:03;;;;;;;3.25;1.40;;;13.30;99.90;;;;;;5106093;28;20082;-52
2024/02/10 11:11:36;;;;;;;5.93;1.13;;;14.20;99.90;;;;;;5106108;28;20063;-50
2024/02/10 11:14:11;;;;;;;2.55;0.90;;;15.30;99.90;;;;;;5105067;28;20024;-52
2024/02/10 11:16:36;;;;;;;4.15;1.38;;;16.10;99.90;;;;;;5105793;28;20064;-52
2024/02/10 11:19:02;;;;;;;7.18;1.88;;;17.00;99.90;;;;;;5105668;28;20047;-52
2024/02/10 11:21:30;;;;;;;4.63;1.48;;;17.50;99.90;;;;;;5104533;28;20051;-52
2024/02/10 11:24:10;;;;;;;3.50;1.00;;;18.20;99.90;;;;;;5105282;28;20036;-52
2024/02/10 11:26:39;;;;;;;4.20;1.65;;;18.50;99.90;;;;;;5104893;28;20689;-51
2024/02/10 11:29:08;;;;;;;4.55;1.38;;;16.50;99.90;;;;;;5105734;28;20290;-53
2024/02/10 11:31:37;;;;;;;6.70;2.15;;;15.80;99.90;;;;;;5104524;28;20048;-52
2024/02/10 11:34:11;;;;;;;6.00;1.17;;;16.60;99.90;;;;;;5105706;28;20042;-52
2024/02/10 11:36:37;;;;;;;3.80;1.33;;;17.20;99.90;;;;;;5105165;28;20048;-52
2024/02/10 11:39:09;;;;;;;5.68;1.42;;;18.10;99.90;;;;;;5105477;28;20083;-52
2024/02/10 11:41:37;;;;;;;3.67;1.02;;;18.40;99.90;;;;;;5105208;28;20043;-52
2024/02/10 11:44:05;;;;;;;7.45;1.98;;;18.40;99.90;;;;;;5105689;28;20028;-52
2024/02/10 11:46:31;;;;;;;3.75;1.38;;;18.50;99.90;;;;;;5105519;28;20289;-50
2024/02/10 11:48:59;;;;;;;5.72;1.77;;;18.40;99.90;;;;;;5104416;28;20031;-50
2024/02/10 11:51:27;;;;;;;3.67;1.23;;;18.80;99.90;;;;;;5105420;28;20089;-50
2024/02/10 11:53:52;;;;;;;3.30;1.00;;;18.60;99.90;;;;;;5105598;28;20308;-51
2024/02/10 11:56:18;;;;;;;4.75;1.10;;;18.80;99.90;;;;;;5105410;28;20055;-50
2024/02/10 11:58:45;;;;;;;3.78;0.88;;;19.70;99.90;;;;;;5104269;28;20159;-49
2024/02/10 12:01:12;;;;;;;4.05;1.00;;;19.30;99.90;;;;;;5104120;28;20024;-51
2024/02/10 12:03:44;;;;;;;3.97;1.92;;;20.20;99.90;;;;;;5103920;28;20050;-51
2024/02/10 12:06:12;;;;;;;6.05;2.05;;;20.20;99.90;;;;;;5105352;28;20039;-52
2024/02/10 12:08:43;;;;;;;7.32;2.05;;;20.90;99.90;;;;;;5104727;28;20271;-51
2024/02/10 12:11:14;;;;;;;6.30;1.90;;;21.70;99.90;;;;;;5105122;28;20051;-52
2024/02/10 12:13:39;;;;;;;4.22;1.35;;;21.70;99.90;;;;;;5104197;28;20297;-52
2024/02/10 12:16:07;;;;;;;3.45;1.13;;;21.10;99.90;;;;;;5105116;28;20032;-51
2024/02/10 12:18:33;;;;;;;5.63;1.85;;;20.20;99.90;;;;;;5104852;28;20055;-50
2024/02/10 12:20:58;;;;;;;4.55;1.10;;;20.70;99.90;;;;;;5105224;28;20020;-51
2024/02/10 12:23:29;;;;;;;4.90;1.40;;;21.20;99.90;;;;;;5105031;28;20038;-50
2024/02/10 12:25:55;;;;;;;5.43;1.77;;;22.10;99.90;;;;;;5104585;28;20109;-49
2024/02/10 12:28:22;;;;;;;4.20;1.48;;;21.30;99.90;;;;;;5105164;28;20024;-52
2024/02/10 12:30:48;;;;;;;3.95;1.70;;;21.10;99.90;;;;;;5103638;28;20178;-52
2024/02/10 12:33:16;;;;;;;4.07;1.45;;;21.70;99.90;;;;;;5103831;28;20032;-52
2024/02/10 12:35:45;;;;;;;5.05;1.30;;;21.00;99.90;;;;;;5104862;28;20024;-52
2024/02/10 12:38:12;;;;;;;4.22;1.52;;;21.10;99.90;;;;;;5103751;28;20268;-50
2024/02/10 12:40:38;;;;;;;5.50;1.80;;;21.70;99.90;;;;;;5104290;28;20031;-48
2024/02/10 12:43:04;;;;;;;4.03;1.30;;;21.50;99.90;;;;;;5086446;28;20020;-50
2024/02/10 12:45:30;;;;;;;4.75;1.50;;;21.00;99.90;;;;;;5104732;28;20016;-51
2024/02/10 12:47:55;;;;;;;4.55;1.73;;;21.10;99.90;;;;;;5104734;28;20036;-52
2024/02/10 12:50:21;;;;;;;6.30;1.50;;;21.70;99.90;;;;;;5104937;28;20027;-51
2024/02/10 12:52:47;;;;;;;4.65;2.28;;;22.00;99.90;;;;;;5104674;28;20036;-52